Private Wetterstation Wechselburg
Wetterdaten: Freitag, 25.12.2020
Datum Zeit Temp. +2m Bodentemp. Temp.+5cm Temp. Wind Windchill X Diff Temp. Feuchte +2m Feuchte +5cm Luftdruck Regen Wind Richtung Richtung Sonnenschein Taupunkt Windchill Windben
25.12.2020 00:00 3,1 C 7,6 C 3,1 C 3,5 C 3,5 C 0,4 C 88 % 93 % 1013,4 hPa 0,0 l/m 1,1 km/h (1 Bft) W 270 0 min 1,3 C 3,5 C 0,0 km/h (0 Bft)
25.12.2020 00:05 3,1 C 7,6 C 3,1 C 3,5 C 3,5 C 0,4 C 88 % 93 % 1013,4 hPa 0,0 l/m 1,0 km/h (0 Bft) W-SW 247 0 min 1,3 C 3,5 C 3,9 km/h (1 Bft)
25.12.2020 00:11 3,1 C 7,6 C 3,1 C 3,5 C 3,5 C 0,4 C 88 % 93 % 1013,9 hPa 0,0 l/m 1,0 km/h (0 Bft) N 0 0 min 1,3 C 3,5 C 0,0 km/h (0 Bft)
25.12.2020 00:26 3,1 C 7,6 C 3,1 C 3,3 C 3,3 C 0,2 C 88 % 93 % 1013,9 hPa 0,0 l/m 1,4 km/h (1 Bft) W-SW 247 0 min 1,3 C 3,3 C 6,8 km/h (2 Bft)
25.12.2020 00:27 3,1 C 7,6 C 3,1 C 3,3 C 3,3 C 0,2 C 88 % 93 % 1013,9 hPa 0,0 l/m 1,4 km/h (1 Bft) W-SW 247 0 min 1,3 C 3,3 C 2,4 km/h (1 Bft)
25.12.2020 00:39 2,9 C 7,7 C 3,0 C 3,1 C 3,1 C 0,2 C 88 % 93 % 1013,8 hPa 0,0 l/m 0,3 km/h (0 Bft) SW 225 0 min 1,1 C 3,1 C 0,0 km/h (0 Bft)
25.12.2020 00:45 2,9 C 7,6 C 3,0 C 3,0 C 3,0 C 0,1 C 88 % 93 % 1013,8 hPa 0,0 l/m 1,0 km/h (0 Bft) NW 315 0 min 1,1 C 3,0 C 3,7 km/h (1 Bft)
25.12.2020 00:50 2,9 C 7,7 C 2,9 C 3,0 C 3,0 C 0,1 C 88 % 93 % 1014,0 hPa 0,0 l/m 1,1 km/h (1 Bft) NW 315 0 min 1,1 C 3,0 C 0,0 km/h (0 Bft)
25.12.2020 00:55 2,9 C 7,6 C 2,9 C 2,9 C 2,9 C 0,0 C 88 % 93 % 1014,0 hPa 0,0 l/m 0,8 km/h (0 Bft) S-SW 202 0 min 1,1 C 2,9 C 0,0 km/h (0 Bft)
25.12.2020 01:00 2,9 C 7,6 C 2,8 C 2,9 C 2,8 C 0,0 C 88 % 93 % 1014,0 hPa 0,0 l/m 0,8 km/h (0 Bft) NW 315 0 min 1,1 C 2,8 C 3,4 km/h (1 Bft)
25.12.2020 01:05 2,9 C 7,6 C 2,7 C 2,8 C 2,7 C 0,0 C 88 % 93 % 1014,0 hPa 0,0 l/m 0,6 km/h (0 Bft) W 270 0 min 1,1 C 2,7 C 0,0 km/h (0 Bft)
25.12.2020 01:10 2,9 C 7,6 C 2,7 C 2,8 C 2,7 C 0,0 C 88 % 93 % 1014,0 hPa 0,0 l/m 0,6 km/h (0 Bft) S 180 0 min 1,1 C 2,7 C 0,0 km/h (0 Bft)
25.12.2020 01:15 2,7 C 7,6 C 2,7 C 2,7 C 2,7 C 0,0 C 88 % 93 % 1013,6 hPa 0,0 l/m 0,8 km/h (0 Bft) W-SW 247 0 min 0,9 C 2,7 C 1,6 km/h (1 Bft)
25.12.2020 01:20 2,7 C 7,6 C 2,7 C 2,7 C 2,7 C 0,0 C 88 % 93 % 1013,6 hPa 0,0 l/m 1,4 km/h (1 Bft) S-SW 202 0 min 0,9 C 2,7 C 2,3 km/h (1 Bft)
25.12.2020 01:25 2,6 C 7,6 C 2,7 C 2,7 C 2,7 C 0,1 C 88 % 93 % 1013,6 hPa 0,0 l/m 1,4 km/h (1 Bft) W 270 0 min 0,8 C 2,7 C 2,4 km/h (1 Bft)
25.12.2020 01:30 2,5 C 7,6 C 2,7 C 2,7 C 2,7 C 0,2 C 88 % 93 % 1013,8 hPa 0,0 l/m 1,3 km/h (1 Bft) SW 225 0 min 0,7 C 2,7 C 1,9 km/h (1 Bft)
25.12.2020 01:35 2,5 C 7,6 C 2,7 C 2,7 C 2,7 C 0,2 C 88 % 93 % 1013,8 hPa 0,0 l/m 1,9 km/h (1 Bft) W-SW 247 0 min 0,7 C 2,7 C 3,2 km/h (1 Bft)
25.12.2020 01:40 2,5 C 7,6 C 2,7 C 2,8 C 2,8 C 0,3 C 88 % 93 % 1013,8 hPa 0,0 l/m 2,1 km/h (1 Bft) W-SW 247 0 min 0,7 C 2,8 C 3,2 km/h (1 Bft)
25.12.2020 01:45 2,5 C 7,6 C 2,7 C 2,8 C 2,8 C 0,3 C 88 % 93 % 1013,8 hPa 0,0 l/m 1,9 km/h (1 Bft) S-SO 157 0 min 0,7 C 2,8 C 6,6 km/h (2 Bft)
25.12.2020 01:50 2,5 C 7,6 C 2,7 C 2,8 C 2,8 C 0,3 C 88 % 93 % 1014,1 hPa 0,7 l/m 2,7 km/h (1 Bft) W-SW 247 0 min 0,7 C 2,8 C 3,7 km/h (1 Bft)
25.12.2020 01:55 2,5 C 7,6 C 2,7 C 2,6 C 2,6 C 0,1 C 88 % 93 % 1014,1 hPa 0,0 l/m 1,8 km/h (1 Bft) NW 315 0 min 0,7 C 2,6 C 9,8 km/h (2 Bft)
25.12.2020 02:00 2,5 C 7,6 C 2,7 C 2,6 C 2,6 C 0,1 C 88 % 93 % 1014,1 hPa 0,0 l/m 0,3 km/h (0 Bft) SW 225 0 min 0,7 C 2,6 C 0,0 km/h (0 Bft)
25.12.2020 02:05 2,5 C 7,6 C 2,7 C 2,6 C 2,6 C 0,1 C 88 % 93 % 1014,1 hPa 0,0 l/m 0,2 km/h (0 Bft) W-SW 247 0 min 0,7 C 2,6 C 0,0 km/h (0 Bft)
25.12.2020 02:11 2,5 C 7,6 C 2,7 C 2,7 C 2,7 C 0,2 C 88 % 93 % 1014,3 hPa 0,0 l/m 0,2 km/h (0 Bft) N 0 0 min 0,7 C 2,7 C 5,0 km/h (1 Bft)
25.12.2020 02:26 2,5 C 7,6 C 2,7 C 2,8 C 2,8 C 0,3 C 88 % 93 % 1014,3 hPa 0,0 l/m 1,3 km/h (1 Bft) S 180 0 min 0,7 C 2,8 C 0,0 km/h (0 Bft)
25.12.2020 02:38 2,5 C 7,6 C 2,7 C 2,8 C 2,8 C 0,3 C 88 % 93 % 1014,8 hPa 0,0 l/m 0,2 km/h (0 Bft) SW 225 0 min 0,7 C 2,8 C 0,0 km/h (0 Bft)
25.12.2020 02:40 2,5 C 7,6 C 2,7 C 2,8 C 2,8 C 0,3 C 88 % 93 % 1014,8 hPa 0,0 l/m 0,2 km/h (0 Bft) SW 225 0 min 0,7 C 2,8 C 0,0 km/h (0 Bft)
25.12.2020 02:45 2,5 C 7,6 C 2,7 C 2,8 C 2,8 C 0,3 C 88 % 93 % 1014,8 hPa 0,0 l/m 0,3 km/h (0 Bft) SW 225 0 min 0,7 C 2,8 C 0,0 km/h (0 Bft)
25.12.2020 02:50 2,5 C 7,6 C 2,7 C 2,9 C 2,9 C 0,4 C 88 % 93 % 1014,6 hPa 0,0 l/m 0,3 km/h (0 Bft) SW 225 0 min 0,7 C 2,9 C 0,0 km/h (0 Bft)
25.12.2020 02:55 2,5 C 7,6 C 2,8 C 2,9 C 2,9 C 0,4 C 88 % 93 % 1014,6 hPa 0,0 l/m 0,6 km/h (0 Bft) S 180 0 min 0,7 C 2,9 C 0,0 km/h (0 Bft)
25.12.2020 03:00 2,5 C 7,6 C 2,8 C 2,9 C 2,9 C 0,4 C 88 % 93 % 1014,6 hPa 0,0 l/m 0,8 km/h (0 Bft) W 270 0 min 0,7 C 2,9 C 0,0 km/h (0 Bft)
25.12.2020 03:05 2,5 C 7,6 C 2,8 C 3,0 C 3,0 C 0,5 C 88 % 93 % 1014,6 hPa 0,0 l/m 0,3 km/h (0 Bft) NW 315 0 min 0,7 C 3,0 C 2,1 km/h (1 Bft)
25.12.2020 03:10 2,5 C 7,6 C 2,9 C 3,0 C 3,0 C 0,5 C 88 % 93 % 1014,6 hPa 0,0 l/m 0,3 km/h (0 Bft) W 270 0 min 0,7 C 3,0 C 0,0 km/h (0 Bft)
25.12.2020 03:15 2,3 C 7,6 C 2,9 C 3,1 C 3,1 C 0,8 C 89 % 93 % 1014,6 hPa 0,0 l/m 0,3 km/h (0 Bft) NW 315 0 min 0,7 C 3,1 C 0,0 km/h (0 Bft)
25.12.2020 03:20 2,3 C 7,6 C 2,9 C 3,1 C 3,1 C 0,8 C 89 % 93 % 1014,6 hPa 0,0 l/m 0,6 km/h (0 Bft) NW 315 0 min 0,7 C 3,1 C 0,0 km/h (0 Bft)
25.12.2020 03:25 2,3 C 7,6 C 2,9 C 3,1 C 3,1 C 0,8 C 89 % 93 % 1014,6 hPa 0,0 l/m 0,6 km/h (0 Bft) S-SW 202 0 min 0,7 C 3,1 C 0,0 km/h (0 Bft)
25.12.2020 03:30 2,3 C 7,6 C 2,9 C 3,1 C 3,1 C 0,8 C 89 % 93 % 1014,9 hPa 0,0 l/m 0,5 km/h (0 Bft) NW 315 0 min 0,7 C 3,1 C 2,3 km/h (1 Bft)
25.12.2020 03:35 2,3 C 7,6 C 2,9 C 3,1 C 3,1 C 0,8 C 89 % 93 % 1014,9 hPa 0,0 l/m 0,8 km/h (0 Bft) W 270 0 min 0,7 C 3,1 C 0,0 km/h (0 Bft)
25.12.2020 03:40 2,3 C 7,5 C 2,9 C 3,1 C 3,1 C 0,8 C 89 % 93 % 1014,9 hPa 0,0 l/m 1,1 km/h (1 Bft) W-NW 292 0 min 0,7 C 3,1 C 1,9 km/h (1 Bft)
25.12.2020 03:45 2,3 C 7,6 C 2,9 C 3,1 C 3,1 C 0,8 C 89 % 93 % 1014,9 hPa 0,0 l/m 1,4 km/h (1 Bft) NW 315 0 min 0,7 C 3,1 C 1,6 km/h (1 Bft)
25.12.2020 03:50 2,3 C 7,5 C 2,8 C 3,0 C 3,0 C 0,7 C 89 % 93 % 1014,9 hPa 0,0 l/m 1,4 km/h (1 Bft) S-SW 202 0 min 0,7 C 3,0 C 0,0 km/h (0 Bft)
25.12.2020 03:55 2,2 C 7,5 C 2,9 C 3,0 C 3,0 C 0,8 C 89 % 93 % 1014,9 hPa 0,0 l/m 1,0 km/h (0 Bft) NW 315 0 min 0,6 C 3,0 C 0,0 km/h (0 Bft)
25.12.2020 04:00 2,2 C 7,5 C 2,8 C 3,0 C 3,0 C 0,8 C 89 % 93 % 1014,9 hPa 0,0 l/m 1,0 km/h (0 Bft) W-SW 247 0 min 0,6 C 3,0 C 0,0 km/h (0 Bft)
25.12.2020 04:05 2,3 C 7,5 C 2,9 C 3,0 C 3,0 C 0,7 C 89 % 93 % 1014,9 hPa 0,7 l/m 0,6 km/h (0 Bft) W-NW 292 0 min 0,7 C 3,0 C 0,0 km/h (0 Bft)
25.12.2020 04:11 2,3 C 7,5 C 2,9 C 3,0 C 3,0 C 0,7 C 89 % 93 % 1015,0 hPa 0,0 l/m 0,6 km/h (0 Bft) N 0 0 min 0,7 C 3,0 C 0,0 km/h (0 Bft)
25.12.2020 04:26 2,1 C 7,5 C 2,9 C 3,0 C 3,0 C 0,9 C 88 % 93 % 1015,0 hPa 0,0 l/m 0,5 km/h (0 Bft) N-NW 337 0 min 0,3 C 3,0 C 0,0 km/h (0 Bft)
25.12.2020 04:38 2,1 C 7,5 C 2,8 C 3,1 C 3,1 C 1,0 C 88 % 93 % 1014,9 hPa 0,0 l/m 1,3 km/h (1 Bft) W-NW 292 0 min 0,3 C 3,1 C 2,3 km/h (1 Bft)
25.12.2020 04:40 2,1 C 7,5 C 2,8 C 3,1 C 3,1 C 1,0 C 88 % 93 % 1014,9 hPa 0,0 l/m 1,3 km/h (1 Bft) W-NW 292 0 min 0,3 C 3,1 C 2,3 km/h (1 Bft)
25.12.2020 04:45 2,2 C 7,5 C 2,9 C 3,1 C 3,1 C 0,9 C 89 % 93 % 1014,9 hPa 0,0 l/m 1,6 km/h (1 Bft) NW 315 0 min 0,6 C 3,1 C 6,0 km/h (2 Bft)
25.12.2020 04:50 2,1 C 7,5 C 2,9 C 3,1 C 3,1 C 1,0 C 88 % 93 % 1015,2 hPa 0,0 l/m 1,4 km/h (1 Bft) W 270 0 min 0,3 C 3,1 C 3,1 km/h (1 Bft)
25.12.2020 04:55 2,1 C 7,5 C 2,8 C 3,1 C 3,1 C 1,0 C 88 % 93 % 1015,2 hPa 0,0 l/m 2,3 km/h (1 Bft) W 270 0 min 0,3 C 3,1 C 6,3 km/h (2 Bft)
25.12.2020 05:00 2,1 C 7,5 C 2,8 C 3,1 C 3,1 C 1,0 C 88 % 93 % 1015,2 hPa 0,0 l/m 2,7 km/h (1 Bft) W-NW 292 0 min 0,3 C 3,1 C 6,0 km/h (2 Bft)
25.12.2020 05:05 2,1 C 7,5 C 2,7 C 2,3 C 2,3 C 0,2 C 88 % 93 % 1015,2 hPa 0,0 l/m 3,9 km/h (1 Bft) N-NW 337 0 min 0,3 C 2,3 C 6,9 km/h (2 Bft)
25.12.2020 05:10 2,1 C 7,5 C 2,6 C 2,3 C 2,3 C 0,2 C 88 % 93 % 1015,2 hPa 0,0 l/m 3,5 km/h (1 Bft) N 360 0 min 0,3 C 2,3 C 5,6 km/h (1 Bft)
25.12.2020 05:15 2,1 C 7,5 C 2,5 C 2,4 C 2,4 C 0,3 C 88 % 93 % 1015,2 hPa 0,0 l/m 2,9 km/h (1 Bft) N-NW 337 0 min 0,3 C 2,4 C 2,7 km/h (1 Bft)
25.12.2020 05:20 2,1 C 7,5 C 2,5 C 2,5 C 2,5 C 0,4 C 88 % 93 % 1015,2 hPa 0,0 l/m 2,6 km/h (1 Bft) N-NW 337 0 min 0,3 C 2,5 C 4,5 km/h (1 Bft)
25.12.2020 05:25 2,1 C 7,5 C 2,5 C 2,5 C 2,5 C 0,4 C 88 % 93 % 1015,2 hPa 0,0 l/m 1,9 km/h (1 Bft) SW 225 0 min 0,3 C 2,5 C 3,9 km/h (1 Bft)
25.12.2020 05:30 2,1 C 7,5 C 2,5 C 2,5 C 2,5 C 0,4 C 88 % 93 % 1015,3 hPa 0,0 l/m 1,9 km/h (1 Bft) NW 315 0 min 0,3 C 2,5 C 2,7 km/h (1 Bft)
25.12.2020 05:35 1,9 C 7,5 C 2,5 C 2,5 C 2,5 C 0,6 C 88 % 93 % 1015,3 hPa 0,0 l/m 1,8 km/h (1 Bft) NW 315 0 min 0,1 C 2,5 C 2,7 km/h (1 Bft)
25.12.2020 05:40 1,9 C 7,5 C 2,5 C 2,5 C 2,5 C 0,6 C 88 % 93 % 1015,3 hPa 0,0 l/m 2,4 km/h (1 Bft) S 180 0 min 0,1 C 2,5 C 5,1 km/h (1 Bft)
25.12.2020 05:45 1,8 C 7,5 C 2,4 C 2,4 C 2,4 C 0,6 C 88 % 93 % 1015,3 hPa 0,0 l/m 2,7 km/h (1 Bft) NW 315 0 min 0,0 C 2,4 C 2,3 km/h (1 Bft)
25.12.2020 05:50 1,9 C 7,4 C 2,4 C 2,2 C 2,2 C 0,3 C 88 % 93 % 1015,6 hPa 0,0 l/m 3,2 km/h (1 Bft) W-NW 292 0 min 0,1 C 2,2 C 2,1 km/h (1 Bft)
25.12.2020 05:55 1,9 C 7,4 C 2,4 C 2,5 C 2,5 C 0,6 C 88 % 93 % 1015,6 hPa 0,0 l/m 2,3 km/h (1 Bft) W-NW 292 0 min 0,1 C 2,5 C 0,0 km/h (0 Bft)
25.12.2020 06:00 1,7 C 7,4 C 2,3 C 2,5 C 2,5 C 0,8 C 88 % 93 % 1015,6 hPa 0,0 l/m 1,4 km/h (1 Bft) N 360 0 min -0,1 C 2,5 C 0,0 km/h (0 Bft)
25.12.2020 06:05 1,8 C 7,4 C 2,3 C 2,4 C 2,4 C 0,6 C 88 % 93 % 1015,6 hPa 0,0 l/m 1,3 km/h (1 Bft) N-NW 337 0 min 0,0 C 2,4 C 6,8 km/h (2 Bft)
25.12.2020 06:11 1,7 C 7,4 C 2,3 C 2,4 C 2,4 C 0,7 C 88 % 93 % 1015,8 hPa 0,0 l/m 1,4 km/h (1 Bft) N 0 0 min -0,1 C 2,4 C 0,0 km/h (0 Bft)
25.12.2020 06:26 1,7 C 7,4 C 2,3 C 2,4 C 2,4 C 0,7 C 88 % 93 % 1015,8 hPa 0,0 l/m 1,4 km/h (1 Bft) S-SO 157 0 min -0,1 C 2,4 C 0,0 km/h (0 Bft)
25.12.2020 06:38 1,6 C 7,4 C 2,4 C 2,5 C 2,5 C 0,9 C 88 % 93 % 1016,2 hPa 0,0 l/m 1,3 km/h (1 Bft) S 180 0 min -0,2 C 2,5 C 4,7 km/h (1 Bft)
25.12.2020 06:40 1,6 C 7,4 C 2,4 C 2,5 C 2,5 C 0,9 C 88 % 93 % 1016,2 hPa 0,0 l/m 1,3 km/h (1 Bft) S 180 0 min -0,2 C 2,5 C 4,7 km/h (1 Bft)
25.12.2020 06:45 1,6 C 7,4 C 2,3 C 2,3 C 2,3 C 0,7 C 88 % 93 % 1016,2 hPa 0,7 l/m 2,7 km/h (1 Bft) SO 135 0 min -0,2 C 2,3 C 13,8 km/h (3 Bft)
25.12.2020 06:50 1,6 C 7,4 C 2,2 C 2,1 C 2,1 C 0,5 C 88 % 93 % 1016,6 hPa 0,0 l/m 3,2 km/h (1 Bft) NW 315 0 min -0,2 C 2,1 C 2,3 km/h (1 Bft)
25.12.2020 06:55 1,6 C 7,4 C 2,2 C 2,2 C 2,2 C 0,6 C 88 % 93 % 1016,6 hPa 0,0 l/m 2,4 km/h (1 Bft) W-SW 247 0 min -0,2 C 2,2 C 6,8 km/h (2 Bft)
25.12.2020 07:00 1,6 C 7,4 C 2,1 C 2,1 C 2,1 C 0,5 C 88 % 93 % 1016,6 hPa 0,0 l/m 2,4 km/h (1 Bft) N-NW 337 0 min -0,2 C 2,1 C 2,1 km/h (1 Bft)
25.12.2020 07:05 1,6 C 7,4 C 2,0 C 1,6 C 1,6 C 0,0 C 88 % 93 % 1016,6 hPa 0,0 l/m 3,4 km/h (1 Bft) NW 315 0 min -0,2 C 1,6 C 6,1 km/h (2 Bft)
25.12.2020 07:10 1,4 C 7,4 C 2,0 C 1,5 C 1,5 C 0,1 C 88 % 93 % 1016,6 hPa 0,0 l/m 3,4 km/h (1 Bft) O-NO 67 0 min -0,4 C 1,5 C 0,0 km/h (0 Bft)
25.12.2020 07:15 1,5 C 7,4 C 2,0 C 2,0 C 2,0 C 0,5 C 88 % 93 % 1016,6 hPa 0,0 l/m 2,6 km/h (1 Bft) W-NW 292 0 min -0,3 C 2,0 C 0,0 km/h (0 Bft)
25.12.2020 07:20 1,5 C 7,4 C 2,0 C 2,0 C 2,0 C 0,5 C 88 % 93 % 1016,6 hPa 0,0 l/m 1,9 km/h (1 Bft) N 360 0 min -0,3 C 2,0 C 2,9 km/h (1 Bft)
25.12.2020 07:25 1,5 C 7,4 C 2,0 C 2,0 C 2,0 C 0,5 C 88 % 93 % 1016,6 hPa 0,0 l/m 2,1 km/h (1 Bft) S-SO 157 0 min -0,3 C 2,0 C 4,8 km/h (1 Bft)
25.12.2020 07:30 1,5 C 7,4 C 2,0 C 2,0 C 2,0 C 0,5 C 88 % 93 % 1017,1 hPa 0,0 l/m 1,9 km/h (1 Bft) NW 315 0 min -0,3 C 2,0 C 3,5 km/h (1 Bft)
25.12.2020 07:35 1,4 C 7,4 C 2,0 C 2,0 C 2,0 C 0,6 C 88 % 93 % 1017,1 hPa 0,0 l/m 2,4 km/h (1 Bft) W 270 0 min -0,4 C 2,0 C 3,1 km/h (1 Bft)
25.12.2020 07:40 1,3 C 7,4 C 1,9 C 2,0 C 2,0 C 0,7 C 88 % 93 % 1017,1 hPa 0,0 l/m 2,4 km/h (1 Bft) N-NW 337 0 min -0,5 C 2,0 C 2,3 km/h (1 Bft)
25.12.2020 07:45 1,3 C 7,4 C 1,9 C 2,0 C 2,0 C 0,7 C 88 % 93 % 1017,1 hPa 0,0 l/m 1,8 km/h (1 Bft) S 180 0 min -0,5 C 2,0 C 1,9 km/h (1 Bft)
25.12.2020 07:50 1,3 C 7,3 C 1,9 C 2,0 C 2,0 C 0,7 C 88 % 93 % 1017,4 hPa 0,0 l/m 1,6 km/h (1 Bft) SW 225 0 min -0,5 C 2,0 C 4,3 km/h (1 Bft)
25.12.2020 07:55 1,3 C 7,3 C 1,9 C 2,0 C 2,0 C 0,7 C 88 % 93 % 1017,4 hPa 0,0 l/m 2,1 km/h (1 Bft) W 270 0 min -0,5 C 2,0 C 6,9 km/h (2 Bft)
25.12.2020 08:00 1,3 C 7,3 C 1,9 C 1,8 C 1,8 C 0,5 C 88 % 93 % 1017,4 hPa 0,0 l/m 2,9 km/h (1 Bft) NW 315 0 min -0,5 C 1,8 C 1,6 km/h (1 Bft)
25.12.2020 08:05 1,3 C 7,3 C 1,9 C 2,0 C 2,0 C 0,7 C 88 % 93 % 1017,4 hPa 0,0 l/m 2,4 km/h (1 Bft) N 360 0 min -0,5 C 2,0 C 0,0 km/h (0 Bft)
25.12.2020 08:11 1,3 C 7,3 C 1,9 C 2,0 C 2,0 C 0,7 C 88 % 93 % 1017,8 hPa 0,0 l/m 1,6 km/h (1 Bft) N 0 0 min -0,5 C 2,0 C 2,3 km/h (1 Bft)
25.12.2020 08:26 1,3 C 7,3 C 1,9 C 1,1 C 0,7 C 0,0 C 88 % 93 % 1017,8 hPa 0,7 l/m 4,7 km/h (1 Bft) SO 135 0 min -0,5 C -0,7 C 10,6 km/h (2 Bft)
25.12.2020 08:30 1,3 C 7,3 C 1,7 C 1,1 C 0,7 C 0,0 C 88 % 93 % 1018,2 hPa 0,0 l/m 4,3 km/h (1 Bft) W 270 0 min -0,5 C 0,7 C 5,0 km/h (1 Bft)
25.12.2020 08:35 1,1 C 7,3 C 1,7 C 1,0 C 0,7 C 0,0 C 89 % 93 % 1018,2 hPa 0,0 l/m 4,2 km/h (1 Bft) NW 315 0 min -0,5 C 0,7 C 5,1 km/h (1 Bft)
25.12.2020 08:40 1,1 C 7,3 C 1,7 C 0,9 C 0,6 C 0,0 C 89 % 93 % 1018,2 hPa 0,0 l/m 4,2 km/h (1 Bft) NW 315 0 min -0,5 C 0,6 C 6,3 km/h (2 Bft)
25.12.2020 08:45 1,1 C 7,3 C 1,6 C 0,8 C 0,3 C 0,0 C 89 % 93 % 1018,2 hPa 0,0 l/m 4,5 km/h (1 Bft) NW 315 0 min -0,5 C 0,3 C 4,0 km/h (1 Bft)
25.12.2020 08:50 1,1 C 7,3 C 1,6 C 1,1 C 1,1 C 0,0 C 89 % 93 % 1018,4 hPa 0,0 l/m 3,1 km/h (1 Bft) SO 135 0 min -0,5 C 1,1 C 4,2 km/h (1 Bft)
25.12.2020 08:55 1,1 C 7,2 C 1,6 C 1,5 C 1,5 C 0,4 C 89 % 93 % 1018,4 hPa 0,0 l/m 2,3 km/h (1 Bft) W 270 0 min -0,5 C 1,5 C 4,8 km/h (1 Bft)
25.12.2020 09:00 1,1 C 7,2 C 1,6 C 1,4 C 1,4 C 0,3 C 89 % 93 % 1018,4 hPa 0,0 l/m 2,7 km/h (1 Bft) NO 45 0 min -0,5 C 1,4 C 9,5 km/h (2 Bft)
25.12.2020 09:05 1,1 C 7,2 C 1,6 C 1,0 C 0,9 C 0,0 C 89 % 93 % 1018,4 hPa 0,0 l/m 3,4 km/h (1 Bft) O-SO 112 0 min -0,5 C 0,9 C 0,0 km/h (0 Bft)
25.12.2020 09:10 1,1 C 7,2 C 1,6 C 1,0 C 0,9 C 0,0 C 89 % 93 % 1018,6 hPa 0,0 l/m 3,2 km/h (1 Bft) W 270 0 min -0,5 C 0,9 C 0,0 km/h (0 Bft)
25.12.2020 09:15 0,9 C 7,2 C 1,6 C 1,4 C 1,4 C 0,5 C 89 % 93 % 1018,6 hPa 0,0 l/m 2,3 km/h (1 Bft) N-NO 22 0 min -0,7 C 1,4 C 4,8 km/h (1 Bft)
25.12.2020 09:20 0,9 C 7,2 C 1,5 C 1,3 C 1,3 C 0,4 C 89 % 93 % 1018,6 hPa 0,0 l/m 2,6 km/h (1 Bft) W 270 0 min -0,7 C 1,3 C 5,5 km/h (1 Bft)
25.12.2020 09:25 0,9 C 7,2 C 1,6 C 1,4 C 1,4 C 0,5 C 89 % 93 % 1018,6 hPa 0,0 l/m 2,4 km/h (1 Bft) W 270 0 min -0,7 C 1,4 C 2,3 km/h (1 Bft)
25.12.2020 09:30 0,9 C 7,2 C 1,6 C 1,4 C 1,4 C 0,5 C 89 % 93 % 1019,1 hPa 0,0 l/m 2,3 km/h (1 Bft) W-SW 247 0 min -0,7 C 1,4 C 4,0 km/h (1 Bft)
25.12.2020 09:35 0,9 C 7,1 C 1,5 C 0,9 C 0,8 C 0,0 C 89 % 93 % 1019,1 hPa 0,0 l/m 3,4 km/h (1 Bft) NW 315 0 min -0,7 C 0,8 C 5,5 km/h (1 Bft)
25.12.2020 09:40 0,9 C 7,1 C 1,5 C 0,8 C 0,6 C 0,0 C 89 % 93 % 1019,1 hPa 0,0 l/m 3,5 km/h (1 Bft) N-NW 337 0 min -0,7 C 0,6 C 2,6 km/h (1 Bft)
25.12.2020 09:45 0,8 C 7,1 C 1,5 C 0,8 C 0,7 C 0,0 C 88 % 93 % 1019,1 hPa 0,0 l/m 3,4 km/h (1 Bft) W 270 0 min -1,0 C 0,7 C 5,5 km/h (1 Bft)
25.12.2020 09:50 0,8 C 7,1 C 1,5 C 0,8 C 0,8 C 0,0 C 88 % 93 % 1020,2 hPa 0,0 l/m 3,2 km/h (1 Bft) SW 225 0 min -1,0 C 0,8 C 2,3 km/h (1 Bft)
25.12.2020 09:55 0,9 C 7,1 C 1,5 C 0,9 C 0,9 C 0,0 C 89 % 93 % 1020,2 hPa 0,0 l/m 3,1 km/h (1 Bft) W 270 0 min -0,7 C 0,9 C 2,1 km/h (1 Bft)
25.12.2020 10:00 0,9 C 7,1 C 1,6 C 1,1 C 1,1 C 0,2 C 89 % 93 % 1020,2 hPa 0,0 l/m 2,7 km/h (1 Bft) W 270 0 min -0,7 C 1,1 C 3,4 km/h (1 Bft)
25.12.2020 10:05 1,0 C 7,1 C 1,6 C 1,4 C 1,4 C 0,4 C 89 % 93 % 1020,2 hPa 0,0 l/m 2,1 km/h (1 Bft) W-NW 292 0 min -0,6 C 1,4 C 2,9 km/h (1 Bft)
25.12.2020 10:10 1,1 C 7,1 C 1,6 C 1,4 C 1,4 C 0,3 C 89 % 93 % 1020,0 hPa 0,0 l/m 2,3 km/h (1 Bft) W 270 0 min -0,5 C 1,4 C 5,0 km/h (1 Bft)
25.12.2020 10:15 1,1 C 7,0 C 1,7 C 1,4 C 1,4 C 0,3 C 88 % 93 % 1020,0 hPa 0,0 l/m 2,3 km/h (1 Bft) S 180 0 min -0,7 C 1,4 C 4,3 km/h (1 Bft)
25.12.2020 10:20 1,1 C 7,0 C 1,6 C 1,4 C 1,4 C 0,3 C 88 % 93 % 1020,0 hPa 0,0 l/m 2,4 km/h (1 Bft) NW 315 0 min -0,7 C 1,4 C 1,9 km/h (1 Bft)
25.12.2020 10:25 1,1 C 7,0 C 1,7 C 1,4 C 1,4 C 0,3 C 88 % 93 % 1020,0 hPa 0,0 l/m 2,6 km/h (1 Bft) W 270 0 min -0,7 C 1,4 C 4,3 km/h (1 Bft)
25.12.2020 10:30 1,2 C 7,0 C 1,8 C 1,7 C 1,7 C 0,5 C 88 % 93 % 1019,8 hPa 0,0 l/m 1,8 km/h (1 Bft) N 360 0 min -0,6 C 1,7 C 0,0 km/h (0 Bft)
25.12.2020 10:35 1,2 C 7,0 C 1,8 C 2,0 C 2,0 C 0,8 C 88 % 93 % 1019,8 hPa 0,0 l/m 1,4 km/h (1 Bft) SW 225 0 min -0,6 C 2,0 C 1,6 km/h (1 Bft)
25.12.2020 10:40 1,2 C 6,9 C 1,7 C 2,0 C 2,0 C 0,8 C 88 % 93 % 1019,8 hPa 0,0 l/m 2,4 km/h (1 Bft) SW 225 0 min -0,6 C 2,0 C 2,7 km/h (1 Bft)
25.12.2020 10:45 1,3 C 6,9 C 1,8 C 2,3 C 2,3 C 1,0 C 88 % 93 % 1019,8 hPa 0,0 l/m 2,3 km/h (1 Bft) NW 315 0 min -0,5 C 2,3 C 2,3 km/h (1 Bft)
25.12.2020 10:50 1,5 C 6,9 C 1,8 C 2,4 C 2,4 C 0,9 C 88 % 93 % 1020,2 hPa 0,0 l/m 1,9 km/h (1 Bft) S 180 0 min -0,3 C 2,4 C 3,9 km/h (1 Bft)
25.12.2020 10:55 1,5 C 6,9 C 1,9 C 2,5 C 2,5 C 1,0 C 88 % 93 % 1020,2 hPa 0,0 l/m 1,4 km/h (1 Bft) NO 45 0 min -0,3 C 2,5 C 0,0 km/h (0 Bft)
25.12.2020 11:00 1,6 C 6,9 C 1,9 C 2,5 C 2,5 C 0,9 C 88 % 93 % 1020,2 hPa 0,0 l/m 1,0 km/h (0 Bft) SW 225 0 min -0,2 C 2,5 C 2,6 km/h (1 Bft)
25.12.2020 11:05 1,6 C 6,9 C 1,9 C 2,5 C 2,5 C 0,9 C 88 % 93 % 1020,2 hPa 0,0 l/m 1,1 km/h (1 Bft) NO 45 0 min -0,2 C 2,5 C 0,0 km/h (0 Bft)
25.12.2020 11:10 1,7 C 6,9 C 1,8 C 2,5 C 2,5 C 0,8 C 88 % 93 % 1020,4 hPa 0,0 l/m 1,6 km/h (1 Bft) N-NW 337 0 min -0,1 C 2,5 C 4,8 km/h (1 Bft)
25.12.2020 11:15 1,7 C 6,7 C 1,9 C 2,5 C 2,5 C 0,8 C 88 % 93 % 1020,4 hPa 0,0 l/m 1,4 km/h (1 Bft) W 270 0 min -0,1 C 2,5 C 2,4 km/h (1 Bft)
25.12.2020 11:20 1,9 C 6,9 C 1,9 C 2,6 C 2,6 C 0,7 C 88 % 93 % 1020,4 hPa 0,0 l/m 1,8 km/h (1 Bft) S 180 0 min 0,1 C 2,6 C 1,6 km/h (1 Bft)
25.12.2020 11:25 1,9 C 6,9 C 1,9 C 2,5 C 2,5 C 0,6 C 88 % 93 % 1020,4 hPa 0,0 l/m 0,8 km/h (0 Bft) W-NW 292 0 min 0,1 C 2,5 C 0,0 km/h (0 Bft)
25.12.2020 11:30 1,9 C 6,7 C 1,9 C 2,5 C 2,5 C 0,6 C 88 % 93 % 1020,7 hPa 0,0 l/m 0,8 km/h (0 Bft) W-SW 247 0 min 0,1 C 2,5 C 0,0 km/h (0 Bft)
25.12.2020 11:35 1,9 C 6,7 C 1,8 C 2,5 C 2,5 C 0,6 C 88 % 93 % 1020,7 hPa 0,0 l/m 1,0 km/h (0 Bft) W 270 0 min 0,1 C 2,5 C 2,4 km/h (1 Bft)
25.12.2020 11:40 1,9 C 6,7 C 1,9 C 2,5 C 2,5 C 0,6 C 88 % 93 % 1020,7 hPa 0,0 l/m 1,6 km/h (1 Bft) N-NW 337 0 min 0,1 C 2,5 C 3,5 km/h (1 Bft)
25.12.2020 11:45 2,0 C 6,7 C 1,9 C 2,2 C 2,2 C 0,2 C 88 % 93 % 1020,7 hPa 0,0 l/m 3,2 km/h (1 Bft) N 360 0 min 0,2 C 2,2 C 3,1 km/h (1 Bft)
25.12.2020 11:50 2,0 C 6,7 C 1,8 C 2,2 C 2,2 C 0,2 C 88 % 93 % 1020,6 hPa 0,0 l/m 3,2 km/h (1 Bft) W 270 0 min 0,2 C 2,2 C 5,1 km/h (1 Bft)
25.12.2020 11:55 2,1 C 6,7 C 1,8 C 2,5 C 2,5 C 0,4 C 88 % 93 % 1020,6 hPa 0,0 l/m 2,3 km/h (1 Bft) S-SW 202 0 min 0,3 C 2,5 C 2,7 km/h (1 Bft)
25.12.2020 12:00 2,1 C 6,6 C 1,9 C 2,5 C 2,5 C 0,4 C 87 % 93 % 1020,6 hPa 0,0 l/m 2,1 km/h (1 Bft) W 270 0 min 0,2 C 2,5 C 1,9 km/h (1 Bft)
25.12.2020 12:05 2,0 C 6,6 C 1,8 C 2,5 C 2,5 C 0,5 C 87 % 93 % 1020,6 hPa 0,0 l/m 1,9 km/h (1 Bft) SO 135 0 min 0,1 C 2,5 C 1,9 km/h (1 Bft)
25.12.2020 12:10 2,0 C 6,6 C 1,8 C 2,5 C 2,5 C 0,5 C 87 % 93 % 1020,6 hPa 0,0 l/m 2,1 km/h (1 Bft) N-NW 337 0 min 0,1 C 2,5 C 2,6 km/h (1 Bft)
25.12.2020 12:15 2,0 C 6,6 C 1,8 C 2,5 C 2,5 C 0,5 C 87 % 93 % 1020,6 hPa 0,0 l/m 1,3 km/h (1 Bft) W-SW 247 0 min 0,1 C 2,5 C 0,0 km/h (0 Bft)
25.12.2020 12:20 2,1 C 6,6 C 1,8 C 2,5 C 2,5 C 0,4 C 87 % 93 % 1020,6 hPa 0,0 l/m 1,1 km/h (1 Bft) SW 225 0 min 0,2 C 2,5 C 2,6 km/h (1 Bft)
25.12.2020 12:25 2,1 C 6,6 C 1,9 C 2,5 C 2,5 C 0,4 C 87 % 93 % 1020,6 hPa 0,0 l/m 1,6 km/h (1 Bft) NW 315 0 min 0,2 C 2,5 C 4,8 km/h (1 Bft)
25.12.2020 12:30 2,1 C 6,6 C 1,8 C 2,5 C 2,5 C 0,4 C 87 % 93 % 1020,6 hPa 0,0 l/m 2,1 km/h (1 Bft) W-NW 292 0 min 0,2 C 2,5 C 2,6 km/h (1 Bft)
25.12.2020 12:35 2,1 C 6,6 C 1,8 C 2,5 C 2,5 C 0,4 C 87 % 93 % 1020,6 hPa 0,0 l/m 2,4 km/h (1 Bft) NW 315 0 min 0,2 C 2,5 C 5,8 km/h (2 Bft)
25.12.2020 12:40 2,1 C 6,6 C 1,9 C 2,5 C 2,5 C 0,4 C 87 % 93 % 1020,6 hPa 0,0 l/m 2,1 km/h (1 Bft) SW 225 0 min 0,2 C 2,5 C 3,5 km/h (1 Bft)
25.12.2020 12:45 2,1 C 6,6 C 2,1 C 2,8 C 2,8 C 0,7 C 87 % 93 % 1020,6 hPa 0,0 l/m 1,9 km/h (1 Bft) W-SW 247 0 min 0,2 C 2,8 C 1,6 km/h (1 Bft)
25.12.2020 12:50 2,3 C 6,6 C 2,2 C 3,0 C 3,0 C 0,7 C 87 % 93 % 1020,5 hPa 0,0 l/m 1,8 km/h (1 Bft) NW 315 0 min 0,4 C 3,0 C 0,0 km/h (0 Bft)
25.12.2020 12:55 2,3 C 6,6 C 2,3 C 3,1 C 3,1 C 0,8 C 87 % 93 % 1020,5 hPa 0,0 l/m 0,6 km/h (0 Bft) NW 315 0 min 0,4 C 3,1 C 0,0 km/h (0 Bft)
25.12.2020 13:00 2,3 C 6,6 C 2,3 C 3,2 C 3,2 C 0,9 C 87 % 93 % 1020,5 hPa 0,0 l/m 0,8 km/h (0 Bft) NW 315 0 min 0,4 C 3,2 C 6,0 km/h (2 Bft)
25.12.2020 13:05 2,3 C 6,6 C 2,3 C 3,1 C 3,1 C 0,8 C 87 % 93 % 1020,5 hPa 0,0 l/m 1,9 km/h (1 Bft) SW 225 0 min 0,4 C 3,1 C 2,6 km/h (1 Bft)
25.12.2020 13:10 2,4 C 6,6 C 2,3 C 3,1 C 3,1 C 0,7 C 86 % 93 % 1020,7 hPa 0,0 l/m 2,4 km/h (1 Bft) W-SW 247 0 min 0,3 C 3,1 C 2,1 km/h (1 Bft)
25.12.2020 13:15 2,4 C 6,6 C 2,4 C 3,2 C 3,2 C 0,8 C 86 % 93 % 1020,7 hPa 0,0 l/m 1,1 km/h (1 Bft) N-NW 337 0 min 0,3 C 3,2 C 0,0 km/h (0 Bft)
25.12.2020 13:20 2,4 C 6,5 C 2,4 C 3,3 C 3,3 C 0,9 C 86 % 93 % 1020,7 hPa 0,0 l/m 1,3 km/h (1 Bft) W-NW 292 0 min 0,3 C 3,3 C 4,5 km/h (1 Bft)
25.12.2020 13:25 2,4 C 6,5 C 2,3 C 3,3 C 3,3 C 0,9 C 86 % 93 % 1020,7 hPa 0,0 l/m 1,9 km/h (1 Bft) W-SW 247 0 min 0,3 C 3,3 C 5,0 km/h (1 Bft)
25.12.2020 13:30 2,4 C 6,5 C 2,4 C 3,4 C 3,4 C 1,0 C 86 % 93 % 1020,5 hPa 0,0 l/m 1,6 km/h (1 Bft) W-SW 247 0 min 0,3 C 3,4 C 0,0 km/h (0 Bft)
25.12.2020 13:35 2,5 C 6,5 C 2,4 C 3,5 C 3,5 C 1,0 C 86 % 93 % 1020,5 hPa 0,0 l/m 1,1 km/h (1 Bft) NO 45 0 min 0,4 C 3,5 C 2,6 km/h (1 Bft)
25.12.2020 13:40 2,5 C 6,5 C 2,4 C 3,5 C 3,5 C 1,0 C 86 % 93 % 1020,5 hPa 0,0 l/m 1,3 km/h (1 Bft) NW 315 0 min 0,4 C 3,5 C 2,1 km/h (1 Bft)
25.12.2020 13:45 2,5 C 6,5 C 2,3 C 3,3 C 3,3 C 0,8 C 86 % 93 % 1020,5 hPa 0,0 l/m 2,3 km/h (1 Bft) W 270 0 min 0,4 C 3,3 C 6,6 km/h (2 Bft)
25.12.2020 13:50 2,4 C 6,5 C 2,2 C 3,1 C 3,1 C 0,7 C 85 % 93 % 1020,7 hPa 0,0 l/m 2,7 km/h (1 Bft) W 270 0 min 0,1 C 3,1 C 4,0 km/h (1 Bft)
25.12.2020 13:55 2,4 C 6,5 C 2,1 C 2,7 C 2,7 C 0,3 C 85 % 92 % 1020,7 hPa 0,0 l/m 3,1 km/h (1 Bft) W-SW 247 0 min 0,1 C 2,7 C 6,8 km/h (2 Bft)
25.12.2020 14:00 2,3 C 6,6 C 1,9 C 2,2 C 1,9 C 0,0 C 85 % 92 % 1020,7 hPa 0,0 l/m 3,5 km/h (1 Bft) W 270 0 min 0,0 C 1,9 C 9,7 km/h (2 Bft)
25.12.2020 14:05 1,9 C 6,6 C 1,6 C 1,6 C 0,9 C 0,0 C 85 % 92 % 1020,7 hPa 0,0 l/m 4,5 km/h (1 Bft) W-NW 292 0 min -0,3 C 0,9 C 7,4 km/h (2 Bft)
25.12.2020 14:10 1,9 C 6,5 C 1,6 C 1,5 C 0,8 C 0,0 C 85 % 92 % 1021,0 hPa 0,0 l/m 4,7 km/h (1 Bft) W-SW 247 0 min -0,3 C -0,5 C 7,4 km/h (2 Bft)
25.12.2020 14:15 1,8 C 6,5 C 1,7 C 1,5 C 1,0 C 0,0 C 85 % 92 % 1021,0 hPa 0,0 l/m 4,3 km/h (1 Bft) NW 315 0 min -0,4 C 1,0 C 10,0 km/h (2 Bft)
25.12.2020 14:20 1,8 C 6,5 C 1,7 C 1,8 C 1,7 C 0,0 C 85 % 92 % 1021,0 hPa 0,0 l/m 3,1 km/h (1 Bft) S-SO 157 0 min -0,4 C 1,7 C 2,6 km/h (1 Bft)
25.12.2020 14:25 1,9 C 6,5 C 1,7 C 2,1 C 2,1 C 0,2 C 86 % 92 % 1021,0 hPa 0,0 l/m 2,4 km/h (1 Bft) NW 315 0 min -0,2 C 2,1 C 1,9 km/h (1 Bft)
25.12.2020 14:30 1,9 C 6,5 C 1,7 C 2,1 C 2,1 C 0,2 C 86 % 93 % 1021,0 hPa 0,0 l/m 1,9 km/h (1 Bft) SW 225 0 min -0,2 C 2,1 C 3,2 km/h (1 Bft)
25.12.2020 14:35 2,0 C 6,5 C 1,8 C 2,2 C 2,2 C 0,2 C 86 % 93 % 1021,0 hPa 0,0 l/m 1,1 km/h (1 Bft) SW 225 0 min -0,1 C 2,2 C 3,5 km/h (1 Bft)
25.12.2020 14:40 1,9 C 6,5 C 1,8 C 2,2 C 2,2 C 0,3 C 86 % 93 % 1021,0 hPa 0,0 l/m 1,6 km/h (1 Bft) W-NW 292 0 min -0,2 C 2,2 C 2,9 km/h (1 Bft)
25.12.2020 14:45 2,0 C 6,5 C 1,7 C 2,1 C 2,1 C 0,1 C 86 % 93 % 1021,0 hPa 0,0 l/m 1,8 km/h (1 Bft) SW 225 0 min -0,1 C 2,1 C 2,3 km/h (1 Bft)
25.12.2020 14:50 2,0 C 6,5 C 1,7 C 2,1 C 2,1 C 0,1 C 86 % 93 % 1020,8 hPa 0,0 l/m 1,8 km/h (1 Bft) S-SW 202 0 min -0,1 C 2,1 C 2,9 km/h (1 Bft)
25.12.2020 14:55 2,0 C 6,5 C 1,7 C 2,1 C 2,1 C 0,1 C 86 % 93 % 1020,8 hPa 0,0 l/m 1,6 km/h (1 Bft) SW 225 0 min -0,1 C 2,1 C 0,0 km/h (0 Bft)
25.12.2020 15:00 2,0 C 6,5 C 1,7 C 2,1 C 2,1 C 0,1 C 86 % 93 % 1020,8 hPa 0,0 l/m 1,4 km/h (1 Bft) NW 315 0 min -0,1 C 2,1 C 0,0 km/h (0 Bft)
25.12.2020 15:05 2,0 C 6,5 C 1,7 C 2,1 C 2,1 C 0,1 C 86 % 93 % 1020,8 hPa 0,0 l/m 1,4 km/h (1 Bft) SW 225 0 min -0,1 C 2,1 C 2,9 km/h (1 Bft)
25.12.2020 15:10 2,0 C 6,5 C 1,7 C 2,0 C 2,0 C 0,0 C 86 % 93 % 1021,0 hPa 0,0 l/m 2,3 km/h (1 Bft) S-SW 202 0 min -0,1 C 2,0 C 3,5 km/h (1 Bft)
25.12.2020 15:15 2,0 C 6,4 C 1,6 C 1,7 C 1,2 C 0,0 C 86 % 93 % 1021,0 hPa 0,0 l/m 3,9 km/h (1 Bft) S 180 0 min -0,1 C 1,2 C 3,9 km/h (1 Bft)
25.12.2020 15:20 1,9 C 6,4 C 1,5 C 1,6 C 0,9 C 0,0 C 86 % 93 % 1021,0 hPa 0,0 l/m 4,5 km/h (1 Bft) W-SW 247 0 min -0,2 C 0,9 C 4,0 km/h (1 Bft)
25.12.2020 15:25 1,9 C 6,4 C 1,5 C 1,7 C 1,2 C 0,0 C 86 % 93 % 1021,0 hPa 0,0 l/m 3,7 km/h (1 Bft) S-SO 157 0 min -0,2 C 1,2 C 2,1 km/h (1 Bft)
25.12.2020 15:30 1,8 C 6,4 C 1,4 C 1,6 C 1,1 C 0,0 C 86 % 93 % 1021,2 hPa 0,0 l/m 3,9 km/h (1 Bft) NW 315 0 min -0,3 C 1,1 C 5,0 km/h (1 Bft)
25.12.2020 15:35 1,9 C 6,4 C 1,3 C 1,6 C 0,9 C 0,0 C 85 % 93 % 1021,2 hPa 0,0 l/m 4,0 km/h (1 Bft) S 180 0 min -0,3 C 0,9 C 3,2 km/h (1 Bft)
25.12.2020 15:40 1,8 C 6,4 C 1,3 C 1,5 C 1,0 C 0,0 C 85 % 92 % 1021,2 hPa 0,0 l/m 3,7 km/h (1 Bft) SW 225 0 min -0,4 C 1,0 C 3,5 km/h (1 Bft)
25.12.2020 15:45 1,7 C 6,4 C 1,3 C 1,6 C 1,4 C 0,0 C 85 % 93 % 1021,2 hPa 0,0 l/m 2,9 km/h (1 Bft) S-SW 202 0 min -0,5 C 1,4 C 3,9 km/h (1 Bft)
25.12.2020 15:50 1,7 C 6,3 C 1,3 C 1,5 C 1,2 C 0,0 C 85 % 93 % 1021,6 hPa 0,0 l/m 3,2 km/h (1 Bft) SW 225 0 min -0,5 C 1,2 C 7,7 km/h (2 Bft)
25.12.2020 15:55 1,6 C 6,3 C 1,2 C 1,3 C 0,8 C 0,0 C 85 % 93 % 1021,6 hPa 0,0 l/m 3,9 km/h (1 Bft) W-SW 247 0 min -0,6 C 0,8 C 4,0 km/h (1 Bft)
25.12.2020 16:00 1,6 C 6,3 C 1,1 C 1,4 C 0,9 C 0,0 C 85 % 93 % 1021,6 hPa 0,0 l/m 3,5 km/h (1 Bft) N-NW 337 0 min -0,6 C 0,9 C 0,0 km/h (0 Bft)
25.12.2020 16:05 1,6 C 6,3 C 1,1 C 1,4 C 0,9 C 0,0 C 84 % 93 % 1021,6 hPa 0,0 l/m 3,5 km/h (1 Bft) S 180 0 min -0,8 C 0,9 C 4,2 km/h (1 Bft)
25.12.2020 16:10 1,7 C 6,3 C 1,1 C 1,3 C 0,4 C 0,0 C 84 % 93 % 1021,3 hPa 0,0 l/m 4,0 km/h (1 Bft) W-NW 292 0 min -0,7 C 0,4 C 6,9 km/h (2 Bft)
25.12.2020 16:15 1,6 C 6,3 C 1,1 C 1,2 C 0,3 C 0,0 C 84 % 93 % 1021,3 hPa 0,0 l/m 4,3 km/h (1 Bft) W-SW 247 0 min -0,8 C 0,3 C 3,1 km/h (1 Bft)
25.12.2020 16:20 1,5 C 6,3 C 1,1 C 1,1 C 0,4 C 0,0 C 84 % 93 % 1021,3 hPa 0,0 l/m 4,2 km/h (1 Bft) SW 225 0 min -0,9 C 0,4 C 4,5 km/h (1 Bft)
25.12.2020 16:25 1,4 C 6,3 C 0,9 C 1,1 C 0,4 C 0,0 C 83 % 93 % 1021,3 hPa 0,0 l/m 4,2 km/h (1 Bft) SW 225 0 min -1,2 C 0,4 C 5,1 km/h (1 Bft)
25.12.2020 16:30 1,5 C 6,3 C 0,9 C 1,0 C 0,1 C 0,0 C 83 % 93 % 1021,8 hPa 0,0 l/m 4,5 km/h (1 Bft) SW 225 0 min -1,1 C 0,1 C 2,9 km/h (1 Bft)
25.12.2020 16:35 1,5 C 6,2 C 0,9 C 1,0 C 0,1 C 0,0 C 83 % 93 % 1021,8 hPa 0,0 l/m 4,5 km/h (1 Bft) NO 45 0 min -1,1 C 0,1 C 3,7 km/h (1 Bft)
25.12.2020 16:40 1,4 C 6,2 C 0,9 C 1,0 C 0,3 C 0,0 C 83 % 93 % 1021,8 hPa 0,0 l/m 4,0 km/h (1 Bft) S-SW 202 0 min -1,2 C 0,3 C 5,3 km/h (1 Bft)
25.12.2020 16:45 1,3 C 6,2 C 0,8 C 0,9 C 0,0 C 0,0 C 83 % 92 % 1021,8 hPa 0,0 l/m 4,7 km/h (1 Bft) S 180 0 min -1,3 C -1,4 C 6,3 km/h (2 Bft)
25.12.2020 16:50 1,3 C 6,2 C 0,8 C 0,8 C -0,1 C 0,0 C 83 % 93 % 1022,0 hPa 0,0 l/m 4,7 km/h (1 Bft) SW 225 0 min -1,3 C -1,6 C 7,9 km/h (2 Bft)
25.12.2020 16:55 1,3 C 6,2 C 0,7 C 0,9 C 0,1 C 0,0 C 83 % 92 % 1022,0 hPa 0,0 l/m 4,3 km/h (1 Bft) W-SW 247 0 min -1,3 C 0,1 C 4,2 km/h (1 Bft)
25.12.2020 17:00 1,3 C 6,2 C 0,7 C 0,9 C 0,0 C 0,0 C 82 % 93 % 1022,0 hPa 0,0 l/m 4,5 km/h (1 Bft) W-SW 247 0 min -1,4 C 0,0 C 9,0 km/h (2 Bft)
25.12.2020 17:05 1,3 C 6,2 C 0,7 C 1,1 C 0,6 C 0,0 C 82 % 93 % 1022,0 hPa 0,0 l/m 3,5 km/h (1 Bft) W-SW 247 0 min -1,4 C 0,6 C 4,8 km/h (1 Bft)
25.12.2020 17:10 1,3 C 6,2 C 0,7 C 1,1 C 0,7 C 0,0 C 82 % 93 % 1022,4 hPa 0,0 l/m 3,4 km/h (1 Bft) SW 225 0 min -1,4 C 0,7 C 2,6 km/h (1 Bft)
25.12.2020 17:15 1,3 C 6,2 C 0,7 C 1,1 C 0,6 C 0,0 C 82 % 93 % 1022,4 hPa 0,0 l/m 3,2 km/h (1 Bft) W-SW 247 0 min -1,4 C 0,6 C 4,2 km/h (1 Bft)
25.12.2020 17:20 1,2 C 6,2 C 0,7 C 1,1 C 0,8 C 0,0 C 82 % 93 % 1022,4 hPa 0,0 l/m 2,9 km/h (1 Bft) W-SW 247 0 min -1,5 C 0,8 C 3,4 km/h (1 Bft)
25.12.2020 17:25 1,2 C 6,2 C 0,6 C 1,0 C 0,7 C 0,0 C 82 % 93 % 1022,4 hPa 0,0 l/m 3,1 km/h (1 Bft) SW 225 0 min -1,5 C 0,7 C 4,5 km/h (1 Bft)
25.12.2020 17:30 1,2 C 6,1 C 0,6 C 1,1 C 0,8 C 0,0 C 82 % 93 % 1022,1 hPa 0,0 l/m 2,9 km/h (1 Bft) S-SW 202 0 min -1,5 C 0,8 C 1,6 km/h (1 Bft)
25.12.2020 17:35 1,3 C 6,1 C 0,6 C 1,1 C 0,6 C 0,0 C 82 % 93 % 1022,1 hPa 0,0 l/m 3,1 km/h (1 Bft) S-SW 202 0 min -1,4 C 0,6 C 5,1 km/h (1 Bft)
25.12.2020 17:40 1,2 C 6,1 C 0,6 C 1,0 C 0,5 C 0,0 C 82 % 93 % 1022,1 hPa 0,0 l/m 3,2 km/h (1 Bft) W-SW 247 0 min -1,5 C 0,5 C 4,5 km/h (1 Bft)
25.12.2020 17:45 1,2 C 6,1 C 0,6 C 1,0 C 0,6 C 0,0 C 81 % 93 % 1022,1 hPa 0,0 l/m 3,1 km/h (1 Bft) SW 225 0 min -1,7 C 0,6 C 3,7 km/h (1 Bft)
25.12.2020 17:50 1,3 C 6,1 C 0,5 C 1,2 C 1,0 C 0,0 C 81 % 93 % 1022,6 hPa 0,0 l/m 2,4 km/h (1 Bft) W-SW 247 0 min -1,6 C 1,0 C 0,0 km/h (0 Bft)
25.12.2020 17:55 1,3 C 6,1 C 0,5 C 1,2 C 1,0 C 0,0 C 81 % 93 % 1022,6 hPa 0,0 l/m 1,4 km/h (1 Bft) W-SW 247 0 min -1,6 C 1,0 C 1,8 km/h (1 Bft)
25.12.2020 18:00 1,2 C 6,1 C 0,5 C 1,1 C 1,0 C 0,0 C 80 % 93 % 1022,6 hPa 0,0 l/m 1,4 km/h (1 Bft) SW 225 0 min -1,9 C 1,0 C 2,1 km/h (1 Bft)
25.12.2020 18:05 1,2 C 6,1 C 0,5 C 1,1 C 0,8 C 0,0 C 80 % 93 % 1022,6 hPa 0,0 l/m 2,7 km/h (1 Bft) S-SW 202 0 min -1,9 C 0,8 C 3,9 km/h (1 Bft)
25.12.2020 18:10 1,2 C 6,1 C 0,5 C 1,0 C 0,7 C 0,0 C 80 % 93 % 1022,9 hPa 0,0 l/m 2,9 km/h (1 Bft) S 180 0 min -1,9 C 0,7 C 4,2 km/h (1 Bft)
25.12.2020 18:15 1,3 C 6,1 C 0,5 C 1,1 C 0,7 C 0,0 C 80 % 93 % 1022,9 hPa 0,0 l/m 2,9 km/h (1 Bft) W-SW 247 0 min -1,8 C 0,7 C 3,2 km/h (1 Bft)
25.12.2020 18:20 1,3 C 6,1 C 0,5 C 1,2 C 1,0 C 0,0 C 80 % 93 % 1022,9 hPa 0,0 l/m 2,4 km/h (1 Bft) S-SW 202 0 min -1,8 C 1,0 C 2,1 km/h (1 Bft)
25.12.2020 18:25 1,2 C 6,0 C 0,5 C 1,1 C 0,9 C 0,0 C 80 % 93 % 1022,9 hPa 0,0 l/m 1,8 km/h (1 Bft) SW 225 0 min -1,9 C 0,9 C 3,5 km/h (1 Bft)
25.12.2020 18:30 1,2 C 6,0 C 0,5 C 1,1 C 0,9 C 0,0 C 80 % 93 % 1023,2 hPa 0,0 l/m 1,8 km/h (1 Bft) W-SW 247 0 min -1,9 C 0,9 C 2,3 km/h (1 Bft)
25.12.2020 18:35 1,2 C 6,0 C 0,4 C 1,1 C 0,9 C 0,0 C 80 % 93 % 1023,2 hPa 0,0 l/m 2,4 km/h (1 Bft) S-SW 202 0 min -1,9 C 0,9 C 3,9 km/h (1 Bft)
25.12.2020 18:40 1,2 C 6,0 C 0,4 C 0,9 C 0,4 C 0,0 C 80 % 93 % 1023,2 hPa 0,0 l/m 3,1 km/h (1 Bft) SW 225 0 min -1,9 C 0,4 C 4,5 km/h (1 Bft)
25.12.2020 18:45 1,2 C 6,0 C 0,4 C 0,9 C 0,3 C 0,0 C 80 % 93 % 1023,2 hPa 0,0 l/m 3,4 km/h (1 Bft) W-SW 247 0 min -1,9 C 0,3 C 6,3 km/h (2 Bft)
25.12.2020 18:50 1,2 C 6,0 C 0,4 C 0,9 C 0,3 C 0,0 C 79 % 93 % 1022,8 hPa 0,0 l/m 3,4 km/h (1 Bft) W-SW 247 0 min -2,0 C 0,3 C 2,9 km/h (1 Bft)
25.12.2020 18:55 1,2 C 6,0 C 0,4 C 1,0 C 0,6 C 0,0 C 79 % 93 % 1022,8 hPa 0,0 l/m 2,9 km/h (1 Bft) SW 225 0 min -2,0 C 0,6 C 2,9 km/h (1 Bft)
25.12.2020 19:00 1,1 C 6,0 C 0,4 C 1,0 C 0,8 C 0,0 C 79 % 93 % 1022,8 hPa 0,0 l/m 2,6 km/h (1 Bft) SW 225 0 min -2,1 C 0,8 C 2,7 km/h (1 Bft)
25.12.2020 19:05 1,1 C 6,0 C 0,4 C 0,9 C 0,6 C 0,0 C 79 % 93 % 1022,8 hPa 0,0 l/m 2,9 km/h (1 Bft) SW 225 0 min -2,1 C 0,6 C 2,4 km/h (1 Bft)
25.12.2020 19:10 1,1 C 6,0 C 0,4 C 0,9 C 0,6 C 0,0 C 79 % 93 % 1022,8 hPa 0,0 l/m 2,9 km/h (1 Bft) SW 225 0 min -2,1 C 0,6 C 2,7 km/h (1 Bft)
25.12.2020 19:15 1,1 C 6,0 C 0,3 C 1,0 C 0,7 C 0,0 C 79 % 93 % 1022,8 hPa 0,0 l/m 2,7 km/h (1 Bft) W-SW 247 0 min -2,1 C 0,7 C 3,9 km/h (1 Bft)
25.12.2020 19:20 1,1 C 6,0 C 0,3 C 1,0 C 0,7 C 0,0 C 79 % 93 % 1022,8 hPa 0,0 l/m 2,7 km/h (1 Bft) S-SW 202 0 min -2,1 C 0,7 C 4,7 km/h (1 Bft)
25.12.2020 19:25 1,1 C 6,0 C 0,3 C 0,9 C 0,4 C 0,0 C 79 % 93 % 1022,8 hPa 0,0 l/m 3,1 km/h (1 Bft) SW 225 0 min -2,1 C 0,4 C 4,0 km/h (1 Bft)
25.12.2020 19:30 1,1 C 6,0 C 0,3 C 0,8 C 0,3 C 0,0 C 79 % 93 % 1022,9 hPa 0,0 l/m 3,4 km/h (1 Bft) W-SW 247 0 min -2,1 C 0,3 C 3,5 km/h (1 Bft)
25.12.2020 19:35 1,1 C 5,9 C 0,3 C 0,8 C 0,3 C 0,0 C 79 % 93 % 1022,9 hPa 0,0 l/m 3,4 km/h (1 Bft) S-SW 202 0 min -2,1 C 0,3 C 2,1 km/h (1 Bft)
25.12.2020 19:40 1,1 C 5,9 C 0,3 C 0,9 C 0,4 C 0,0 C 79 % 93 % 1022,9 hPa 0,0 l/m 3,1 km/h (1 Bft) SW 225 0 min -2,1 C 0,4 C 3,5 km/h (1 Bft)
25.12.2020 19:45 1,0 C 5,9 C 0,3 C 0,8 C 0,4 C 0,0 C 79 % 93 % 1022,9 hPa 0,0 l/m 3,1 km/h (1 Bft) W-SW 247 0 min -2,2 C 0,4 C 4,8 km/h (1 Bft)
25.12.2020 19:50 1,1 C 5,9 C 0,3 C 1,0 C 0,8 C 0,0 C 79 % 93 % 1023,1 hPa 0,0 l/m 2,6 km/h (1 Bft) SW 225 0 min -2,1 C 0,8 C 2,7 km/h (1 Bft)
25.12.2020 19:55 1,1 C 5,9 C 0,3 C 0,9 C 0,6 C 0,0 C 79 % 93 % 1023,1 hPa 0,0 l/m 2,7 km/h (1 Bft) SW 225 0 min -2,1 C 0,6 C 3,1 km/h (1 Bft)
25.12.2020 20:00 1,1 C 5,9 C 0,3 C 0,9 C 0,4 C 0,0 C 78 % 93 % 1023,1 hPa 0,0 l/m 3,1 km/h (1 Bft) SW 225 0 min -2,3 C 0,4 C 3,2 km/h (1 Bft)
25.12.2020 20:05 1,1 C 5,9 C 0,3 C 0,9 C 0,6 C 0,0 C 78 % 93 % 1023,1 hPa 0,0 l/m 2,7 km/h (1 Bft) S-SW 202 0 min -2,3 C 0,6 C 3,5 km/h (1 Bft)
25.12.2020 20:10 1,1 C 5,9 C 0,3 C 1,0 C 0,7 C 0,0 C 78 % 93 % 1023,5 hPa 0,0 l/m 2,6 km/h (1 Bft) W 270 0 min -2,3 C 0,7 C 3,9 km/h (1 Bft)
25.12.2020 20:15 1,1 C 5,9 C 0,3 C 0,9 C 0,4 C 0,0 C 78 % 93 % 1023,5 hPa 0,0 l/m 3,1 km/h (1 Bft) SW 225 0 min -2,3 C 0,4 C 2,6 km/h (1 Bft)
25.12.2020 20:20 1,1 C 5,9 C 0,3 C 0,9 C 0,6 C 0,0 C 78 % 93 % 1023,5 hPa 0,0 l/m 2,9 km/h (1 Bft) SW 225 0 min -2,3 C 0,6 C 2,6 km/h (1 Bft)
25.12.2020 20:25 1,1 C 5,9 C 0,3 C 1,0 C 0,8 C 0,0 C 77 % 93 % 1023,5 hPa 0,0 l/m 1,8 km/h (1 Bft) W 270 0 min -2,5 C 0,8 C 2,7 km/h (1 Bft)
25.12.2020 20:30 1,1 C 5,9 C 0,3 C 1,0 C 0,8 C 0,0 C 78 % 93 % 1023,4 hPa 0,0 l/m 1,3 km/h (1 Bft) W-NW 292 0 min -2,3 C 0,8 C 0,0 km/h (0 Bft)
25.12.2020 20:35 0,9 C 5,9 C 0,3 C 0,8 C 0,7 C 0,0 C 78 % 93 % 1023,4 hPa 0,0 l/m 1,6 km/h (1 Bft) SW 225 0 min -2,5 C 0,7 C 3,1 km/h (1 Bft)
25.12.2020 20:40 0,9 C 5,9 C 0,3 C 0,8 C 0,7 C 0,0 C 78 % 93 % 1023,4 hPa 0,0 l/m 2,1 km/h (1 Bft) S-SW 202 0 min -2,5 C 0,7 C 3,1 km/h (1 Bft)
25.12.2020 20:45 0,9 C 5,9 C 0,3 C 0,8 C 0,7 C 0,0 C 78 % 92 % 1023,4 hPa 0,0 l/m 2,4 km/h (1 Bft) W-SW 247 0 min -2,5 C 0,7 C 3,7 km/h (1 Bft)
25.12.2020 20:50 0,9 C 5,9 C 0,3 C 0,7 C 0,3 C 0,0 C 78 % 92 % 1023,5 hPa 0,0 l/m 3,1 km/h (1 Bft) SW 225 0 min -2,5 C 0,3 C 3,5 km/h (1 Bft)
25.12.2020 20:55 0,9 C 5,8 C 0,3 C 0,6 C 0,0 C 0,0 C 77 % 92 % 1023,5 hPa 0,0 l/m 3,5 km/h (1 Bft) W 270 0 min -2,7 C 0,0 C 5,1 km/h (1 Bft)
25.12.2020 21:00 0,9 C 5,8 C 0,3 C 0,7 C 0,2 C 0,0 C 77 % 92 % 1023,5 hPa 0,0 l/m 3,2 km/h (1 Bft) SW 225 0 min -2,7 C 0,2 C 5,3 km/h (1 Bft)
25.12.2020 21:05 0,9 C 5,8 C 0,3 C 0,6 C 0,0 C 0,0 C 77 % 92 % 1023,5 hPa 0,0 l/m 3,5 km/h (1 Bft) SW 225 0 min -2,7 C 0,0 C 3,9 km/h (1 Bft)
25.12.2020 21:10 0,9 C 5,8 C 0,3 C 0,6 C 0,0 C 0,0 C 77 % 92 % 1023,5 hPa 0,0 l/m 3,5 km/h (1 Bft) SW 225 0 min -2,7 C 0,0 C 5,3 km/h (1 Bft)
25.12.2020 21:15 0,9 C 5,8 C 0,3 C 0,7 C 0,3 C 0,0 C 78 % 92 % 1023,5 hPa 0,0 l/m 3,1 km/h (1 Bft) SW 225 0 min -2,5 C 0,3 C 3,1 km/h (1 Bft)
25.12.2020 21:20 0,8 C 5,8 C 0,3 C 0,7 C 0,4 C 0,0 C 78 % 92 % 1023,5 hPa 0,0 l/m 2,9 km/h (1 Bft) W-SW 247 0 min -2,6 C 0,4 C 2,6 km/h (1 Bft)
25.12.2020 21:25 0,8 C 5,8 C 0,3 C 0,7 C 0,6 C 0,0 C 78 % 92 % 1023,5 hPa 0,0 l/m 2,3 km/h (1 Bft) SW 225 0 min -2,6 C 0,6 C 3,2 km/h (1 Bft)
25.12.2020 21:30 0,8 C 5,8 C 0,3 C 0,7 C 0,6 C 0,0 C 78 % 92 % 1023,5 hPa 0,0 l/m 1,8 km/h (1 Bft) W-SW 247 0 min -2,6 C 0,6 C 2,3 km/h (1 Bft)
25.12.2020 21:35 0,8 C 5,8 C 0,3 C 0,8 C 0,7 C 0,0 C 78 % 92 % 1023,5 hPa 0,0 l/m 1,8 km/h (1 Bft) SW 225 0 min -2,6 C 0,7 C 1,9 km/h (1 Bft)
25.12.2020 21:40 0,8 C 5,8 C 0,3 C 0,8 C 0,7 C 0,0 C 78 % 92 % 1023,5 hPa 0,0 l/m 1,6 km/h (1 Bft) N-NO 22 0 min -2,6 C 0,7 C 2,3 km/h (1 Bft)
25.12.2020 21:45 0,8 C 5,8 C 0,4 C 0,8 C 0,8 C 0,0 C 78 % 92 % 1023,5 hPa 0,0 l/m 2,1 km/h (1 Bft) S-SW 202 0 min -2,6 C 0,8 C 4,2 km/h (1 Bft)
25.12.2020 21:50 0,8 C 5,8 C 0,4 C 0,8 C 0,8 C 0,0 C 78 % 92 % 1023,6 hPa 0,0 l/m 2,3 km/h (1 Bft) S 180 0 min -2,6 C 0,8 C 0,0 km/h (0 Bft)
25.12.2020 21:55 0,8 C 5,8 C 0,4 C 0,8 C 0,8 C 0,0 C 79 % 92 % 1023,6 hPa 0,0 l/m 2,3 km/h (1 Bft) W-SW 247 0 min -2,4 C 0,8 C 4,2 km/h (1 Bft)
25.12.2020 22:00 0,9 C 5,8 C 0,5 C 0,9 C 0,8 C 0,0 C 79 % 92 % 1023,6 hPa 0,0 l/m 2,4 km/h (1 Bft) S 180 0 min -2,3 C 0,8 C 2,9 km/h (1 Bft)
25.12.2020 22:05 0,9 C 5,8 C 0,4 C 0,7 C 0,2 C 0,0 C 79 % 92 % 1023,6 hPa 0,0 l/m 3,4 km/h (1 Bft) S-SW 202 0 min -2,3 C 0,2 C 4,0 km/h (1 Bft)
25.12.2020 22:10 0,9 C 5,8 C 0,4 C 0,7 C 0,2 C 0,0 C 79 % 92 % 1023,8 hPa 0,0 l/m 3,4 km/h (1 Bft) NW 315 0 min -2,3 C 0,2 C 4,7 km/h (1 Bft)
25.12.2020 22:15 0,9 C 5,8 C 0,5 C 0,6 C 0,1 C 0,0 C 80 % 92 % 1023,8 hPa 0,0 l/m 3,5 km/h (1 Bft) S-SW 202 0 min -2,2 C 0,1 C 4,2 km/h (1 Bft)
25.12.2020 22:20 0,9 C 5,8 C 0,5 C 0,6 C -0,1 C 0,0 C 80 % 92 % 1023,8 hPa 0,0 l/m 3,7 km/h (1 Bft) W-SW 247 0 min -2,2 C -0,1 C 6,4 km/h (2 Bft)
25.12.2020 22:25 0,9 C 5,8 C 0,5 C 0,7 C 0,3 C 0,0 C 80 % 92 % 1023,8 hPa 0,0 l/m 3,1 km/h (1 Bft) W 270 0 min -2,2 C 0,3 C 3,9 km/h (1 Bft)
25.12.2020 22:30 0,9 C 5,8 C 0,5 C 0,8 C 0,5 C 0,0 C 80 % 92 % 1024,1 hPa 0,0 l/m 2,7 km/h (1 Bft) N 360 0 min -2,2 C 0,5 C 0,0 km/h (0 Bft)
25.12.2020 22:35 1,0 C 5,8 C 0,5 C 0,9 C 0,7 C 0,0 C 81 % 92 % 1024,1 hPa 0,0 l/m 2,4 km/h (1 Bft) SW 225 0 min -1,9 C 0,7 C 0,0 km/h (0 Bft)
25.12.2020 22:40 0,9 C 5,8 C 0,5 C 0,8 C 0,6 C 0,0 C 81 % 92 % 1024,1 hPa 0,0 l/m 2,6 km/h (1 Bft) W 270 0 min -2,0 C 0,6 C 4,0 km/h (1 Bft)
25.12.2020 22:45 0,9 C 5,8 C 0,4 C 0,7 C 0,3 C 0,0 C 81 % 92 % 1024,1 hPa 0,0 l/m 2,9 km/h (1 Bft) SW 225 0 min -2,0 C 0,3 C 6,0 km/h (2 Bft)
25.12.2020 22:50 0,9 C 5,8 C 0,4 C 0,7 C 0,2 C 0,0 C 82 % 92 % 1024,2 hPa 0,0 l/m 3,1 km/h (1 Bft) SW 225 0 min -1,8 C 0,2 C 2,3 km/h (1 Bft)
25.12.2020 22:55 0,9 C 5,8 C 0,4 C 0,7 C 0,2 C 0,0 C 82 % 92 % 1024,2 hPa 0,0 l/m 2,9 km/h (1 Bft) SW 225 0 min -1,8 C 0,2 C 4,8 km/h (1 Bft)
25.12.2020 23:00 0,9 C 5,8 C 0,3 C 0,6 C 0,1 C 0,0 C 82 % 92 % 1024,2 hPa 0,0 l/m 3,1 km/h (1 Bft) SW 225 0 min -1,8 C 0,1 C 6,1 km/h (2 Bft)
25.12.2020 23:05 0,9 C 5,8 C 0,4 C 0,5 C -0,2 C 0,0 C 82 % 92 % 1024,2 hPa 0,0 l/m 3,5 km/h (1 Bft) W-SW 247 0 min -1,8 C -0,2 C 5,0 km/h (1 Bft)
25.12.2020 23:10 0,9 C 5,8 C 0,5 C 0,7 C 0,3 C 0,0 C 83 % 93 % 1024,2 hPa 0,0 l/m 2,9 km/h (1 Bft) SW 225 0 min -1,7 C 0,3 C 4,0 km/h (1 Bft)
25.12.2020 23:15 0,9 C 5,8 C 0,5 C 0,8 C 0,6 C 0,0 C 83 % 93 % 1024,2 hPa 0,0 l/m 2,6 km/h (1 Bft) S 180 0 min -1,7 C 0,6 C 7,9 km/h (2 Bft)
25.12.2020 23:20 0,9 C 5,8 C 0,5 C 0,7 C 0,2 C 0,0 C 83 % 93 % 1024,2 hPa 0,0 l/m 3,2 km/h (1 Bft) S 180 0 min -1,7 C 0,2 C 3,4 km/h (1 Bft)
25.12.2020 23:25 0,9 C 5,7 C 0,5 C 0,6 C 0,0 C 0,0 C 83 % 93 % 1024,2 hPa 0,0 l/m 3,5 km/h (1 Bft) SW 225 0 min -1,7 C 0,0 C 5,3 km/h (1 Bft)
25.12.2020 23:30 0,9 C 5,7 C 0,5 C 0,6 C 0,1 C 0,0 C 83 % 92 % 1024,3 hPa 0,0 l/m 3,5 km/h (1 Bft) W 270 0 min -1,7 C 0,1 C 2,1 km/h (1 Bft)
25.12.2020 23:35 0,9 C 5,7 C 0,5 C 0,7 C 0,2 C 0,0 C 83 % 92 % 1024,3 hPa 0,0 l/m 3,2 km/h (1 Bft) W-SW 247 0 min -1,7 C 0,2 C 9,3 km/h (2 Bft)
25.12.2020 23:40 0,8 C 5,7 C 0,5 C 0,6 C 0,3 C 0,0 C 83 % 92 % 1024,3 hPa 0,0 l/m 2,9 km/h (1 Bft) W-SW 247 0 min -1,8 C 0,3 C 2,9 km/h (1 Bft)
25.12.2020 23:45 0,8 C 5,7 C 0,3 C 0,5 C -0,1 C 0,0 C 83 % 92 % 1024,3 hPa 0,0 l/m 3,1 km/h (1 Bft) SW 225 0 min -1,8 C -0,1 C 3,1 km/h (1 Bft)
25.12.2020 23:50 0,8 C 5,7 C 0,1 C 0,6 C 0,1 C 0,0 C 83 % 92 % 1024,1 hPa 0,0 l/m 2,6 km/h (1 Bft) W-SW 247 0 min -1,8 C 0,1 C 3,9 km/h (1 Bft)
25.12.2020 23:55 0,7 C 5,7 C -0,1 C 0,4 C -0,2 C 0,0 C 83 % 92 % 1024,1 hPa 0,0 l/m 2,1 km/h (1 Bft) W-SW 247 0 min -1,8 C -0,2 C 2,3 km/h (1 Bft)
_ Min-Zeit 23:55 23:25 23:55 23:55 23:05 00:55 20:25 13:55 00:00 - 02:05 - - - 20:55 16:50 00:00
Minimum _ 0,7 C 5,7 C -0,1 C 0,4 C -0,2 C 0,0 C 77 % 92 % 1013,4 hPa - 0,2 km/h (0 Bft) - - - -2,7 C -1,6 C 0,0 km/h (0 Bft)
_ Max-Zeit 00:00 00:39 00:00 00:00 00:00 04:38 03:15 00:00 23:30 01:50 08:26 - - 00:00 00:00 00:00 06:45
Maximum _ 3,1 C 7,7 C 3,1 C 3,5 C 3,5 C 1,0 C 89 % 93 % 1024,3 hPa 0,7 l/m 4,7 km/h
SO (1 Bft)
- - 0 min 1,3 C 3,5 C 13,8 km/h
SO (3 Bft)
Durchschnitt _ 1,7 C 6,8 C 1,6 C 1,9 C 1,7 C 0,3 C 85 % 93 % 1019,4 hPa #2,7 l/m 2,3 km/h (1 Bft) SW - #0 min. -0,6 C 1,7 C 3,2 km/h (1 Bft)
2020 www.wetterstation-wechselburg.de